createdAt,value
2019-04-03T00:01:15.113Z,15.40
2019-04-03T00:03:43.804Z,13.13
2019-04-03T00:06:12.516Z,14.30
2019-04-03T00:08:41.167Z,14.17
2019-04-03T00:11:11.486Z,14.80
2019-04-03T00:13:42.370Z,14.97
2019-04-03T00:16:10.458Z,14.30
2019-04-03T00:18:39.038Z,13.40
2019-04-03T00:21:07.794Z,14.83
2019-04-03T00:23:36.380Z,14.17
2019-04-03T00:26:05.118Z,14.30
2019-04-03T00:28:33.856Z,13.43
2019-04-03T00:31:02.417Z,13.67
2019-04-03T00:33:31.053Z,13.07
2019-04-03T00:35:59.689Z,15.73
2019-04-03T00:38:28.377Z,14.10
2019-04-03T00:40:57.027Z,13.07
2019-04-03T00:43:25.618Z,14.30
2019-04-03T00:45:54.957Z,14.27
2019-04-03T00:48:25.733Z,14.60
2019-04-03T00:50:56.270Z,13.77
2019-04-03T00:53:25.845Z,15.23
2019-04-03T00:55:56.516Z,13.60
2019-04-03T00:58:42.546Z,14.03
2019-04-03T01:01:12.556Z,13.77
2019-04-03T01:03:41.990Z,15.17
2019-04-03T01:06:10.571Z,14.00
2019-04-03T01:08:39.304Z,13.73
2019-04-03T01:11:08.001Z,14.17
2019-04-03T01:13:36.708Z,13.53
2019-04-03T01:16:05.957Z,14.00
2019-04-03T01:18:35.372Z,13.67
2019-04-03T01:21:06.263Z,14.30
2019-04-03T01:23:37.025Z,14.80
2019-04-03T01:26:05.346Z,13.80
2019-04-03T01:28:34.112Z,12.73
2019-04-03T01:31:02.818Z,14.27
2019-04-03T01:33:31.391Z,13.80
2019-04-03T01:36:00.481Z,14.07
2019-04-03T01:38:29.198Z,13.60
2019-04-03T01:40:57.779Z,15.00
2019-04-03T01:43:26.388Z,13.37
2019-04-03T01:45:56.853Z,13.97
2019-04-03T01:48:25.268Z,14.80
2019-04-03T01:50:53.850Z,14.17
2019-04-03T01:53:22.437Z,15.80
2019-04-03T01:55:51.137Z,14.00
2019-04-03T01:58:19.833Z,14.10
2019-04-03T02:00:48.398Z,13.23
2019-04-03T02:03:16.990Z,15.00
2019-04-03T02:05:45.835Z,14.93
2019-04-03T02:08:15.110Z,14.70
2019-04-03T02:10:43.771Z,13.90
2019-04-03T02:13:12.564Z,13.40
2019-04-03T02:15:41.227Z,15.03
2019-04-03T02:18:09.805Z,14.10
2019-04-03T02:20:38.702Z,14.30
2019-04-03T02:23:07.372Z,14.50
2019-04-03T02:25:35.954Z,11.93
2019-04-03T02:28:04.639Z,13.87
2019-04-03T02:30:33.317Z,15.33
2019-04-03T02:33:02.125Z,13.80
2019-04-03T02:35:31.363Z,14.67
2019-04-03T02:37:59.995Z,14.87
2019-04-03T02:40:31.336Z,12.90
2019-04-03T02:42:59.231Z,14.60
2019-04-03T02:45:27.818Z,14.43
2019-04-03T02:47:56.593Z,15.80
2019-04-03T02:50:25.966Z,14.60
2019-04-03T02:52:58.301Z,16.87
2019-04-03T02:55:25.865Z,14.77
2019-04-03T02:57:54.654Z,14.93
2019-04-03T03:00:23.384Z,15.20
2019-04-03T03:02:52.021Z,14.77
2019-04-03T03:05:20.809Z,14.17
2019-04-03T03:07:50.215Z,13.43
2019-04-03T03:10:20.229Z,15.90
2019-04-03T03:12:49.763Z,15.13
2019-04-03T03:15:19.452Z,14.20
2019-04-03T03:17:49.060Z,15.70
2019-04-03T03:20:20.734Z,17.00
2019-04-03T03:22:51.088Z,16.20
2019-04-03T03:25:20.738Z,15.47
2019-04-03T03:27:49.803Z,14.97
2019-04-03T03:30:36.273Z,16.43
2019-04-03T03:32:49.508Z,16.03
2019-04-03T03:35:27.226Z,16.23
2019-04-03T03:37:50.066Z,20.97
2019-04-03T03:40:19.310Z,18.70
2019-04-03T03:42:48.543Z,24.00
2019-04-03T03:45:21.054Z,24.83
2019-04-03T03:47:51.123Z,20.47
2019-04-03T03:50:24.497Z,17.07
2019-04-03T03:52:54.389Z,19.50
2019-04-03T03:55:25.454Z,16.27
2019-04-03T03:57:55.172Z,17.00
2019-04-03T04:00:24.629Z,14.30
2019-04-03T04:02:54.043Z,17.57
2019-04-03T04:05:23.311Z,18.20
2019-04-03T04:07:52.369Z,18.50
2019-04-03T04:10:23.547Z,18.80
2019-04-03T04:12:51.571Z,19.87
2019-04-03T04:15:20.229Z,18.27
2019-04-03T04:17:51.092Z,16.10
2019-04-03T04:20:19.344Z,16.93
2019-04-03T04:22:50.487Z,17.23
2019-04-03T04:25:19.132Z,16.30
2019-04-03T04:27:48.502Z,17.50
2019-04-03T04:30:19.251Z,16.93
2019-04-03T04:32:47.823Z,15.17
2019-04-03T04:35:16.407Z,17.60
2019-04-03T04:37:44.978Z,16.07
2019-04-03T04:40:13.798Z,17.10
2019-04-03T04:42:42.408Z,18.10
2019-04-03T04:45:11.840Z,17.43
2019-04-03T04:47:41.162Z,18.13
2019-04-03T04:50:10.383Z,18.40
2019-04-03T04:52:39.001Z,16.90
2019-04-03T04:55:08.201Z,16.67
2019-04-03T04:57:36.950Z,16.87
2019-04-03T05:00:07.221Z,16.10
2019-04-03T05:02:35.822Z,16.40
2019-04-03T05:05:09.010Z,18.23
2019-04-03T05:07:37.089Z,18.87
2019-04-03T05:10:06.629Z,16.90
2019-04-03T05:12:35.932Z,17.20
2019-04-03T05:15:05.847Z,17.40
2019-04-03T05:17:34.493Z,18.03
2019-04-03T05:20:03.630Z,17.80
2019-04-03T05:22:32.290Z,16.90
2019-04-03T05:25:00.894Z,18.57
2019-04-03T05:27:30.030Z,16.77
2019-04-03T05:29:58.749Z,18.67
2019-04-03T05:32:27.329Z,17.80
2019-04-03T05:34:55.959Z,17.33
2019-04-03T05:37:24.742Z,18.10
2019-04-03T05:39:55.635Z,18.00
2019-04-03T05:42:23.652Z,18.03
2019-04-03T05:44:52.253Z,17.50
2019-04-03T05:47:20.903Z,17.33
2019-04-03T05:49:51.273Z,17.97
2019-04-03T05:52:19.796Z,18.40
2019-04-03T05:54:48.398Z,18.90
2019-04-03T05:57:17.323Z,19.23
2019-04-03T05:59:58.951Z,18.67
2019-04-03T06:02:20.183Z,18.20
2019-04-03T06:04:46.990Z,18.70
2019-04-03T06:07:17.447Z,19.40
2019-04-03T06:09:46.008Z,16.97
2019-04-03T06:12:16.891Z,19.40
2019-04-03T06:14:44.898Z,19.17
2019-04-03T06:17:13.523Z,19.20
2019-04-03T06:19:42.204Z,18.63
2019-04-03T06:22:10.842Z,18.60
2019-04-03T06:24:39.448Z,19.73
2019-04-03T06:27:10.312Z,23.30
2019-04-03T06:29:38.336Z,23.13
2019-04-03T06:32:07.104Z,21.70
2019-04-03T06:34:38.076Z,20.00
2019-04-03T06:37:06.177Z,20.13
2019-04-03T06:39:34.867Z,18.90
2019-04-03T06:42:03.525Z,18.93
2019-04-03T06:44:32.109Z,19.70
2019-04-03T06:47:01.541Z,20.53
2019-04-03T06:49:31.080Z,20.00
2019-04-03T06:51:59.884Z,18.00
2019-04-03T06:54:31.165Z,19.27
2019-04-03T06:56:58.855Z,19.93
2019-04-03T06:59:27.453Z,19.33
2019-04-03T07:01:56.134Z,18.20
2019-04-03T07:04:24.808Z,20.60
2019-04-03T07:06:55.634Z,19.50
2019-04-03T07:09:34.166Z,19.83
2019-04-03T07:11:57.127Z,19.47
2019-04-03T07:14:26.789Z,19.23
2019-04-03T07:16:55.101Z,18.17
2019-04-03T07:19:24.481Z,18.87
2019-04-03T07:21:55.119Z,20.07
2019-04-03T07:24:23.397Z,19.27
2019-04-03T07:26:52.045Z,20.43
2019-04-03T07:29:20.750Z,21.40
2019-04-03T07:31:49.498Z,19.63
2019-04-03T07:34:18.456Z,19.67
2019-04-03T07:36:47.131Z,18.40
2019-04-03T07:39:17.017Z,21.07
2019-04-03T07:41:46.577Z,19.33
2019-04-03T07:44:15.367Z,20.37
2019-04-03T07:46:44.023Z,19.93
2019-04-03T07:49:14.283Z,21.50
2019-04-03T07:51:43.697Z,20.53
2019-04-03T07:54:12.996Z,20.80
2019-04-03T07:56:41.623Z,23.90
2019-04-03T07:59:10.213Z,19.20
2019-04-03T08:01:40.884Z,22.00
2019-04-03T08:04:09.122Z,20.70
2019-04-03T08:06:38.078Z,18.47
2019-04-03T08:09:09.890Z,19.47
2019-04-03T08:11:38.869Z,18.87
2019-04-03T08:14:09.058Z,19.33
2019-04-03T08:16:37.868Z,18.70
2019-04-03T08:19:08.368Z,19.83
2019-04-03T08:21:37.648Z,19.57
2019-04-03T08:24:08.143Z,19.03
2019-04-03T08:26:37.079Z,19.30
2019-04-03T08:29:05.826Z,20.27
2019-04-03T08:31:34.508Z,19.00
2019-04-03T08:34:14.841Z,17.63
2019-04-03T08:36:33.455Z,18.53
2019-04-03T08:39:02.230Z,18.30
2019-04-03T08:41:31.107Z,17.87
2019-04-03T08:44:00.756Z,17.67
2019-04-03T08:46:30.521Z,17.70
2019-04-03T08:49:00.548Z,18.17
2019-04-03T08:51:29.185Z,17.30
2019-04-03T08:53:57.815Z,16.10
2019-04-03T08:56:26.422Z,16.53
2019-04-03T08:58:56.966Z,16.53
2019-04-03T09:01:25.462Z,15.60
2019-04-03T09:03:54.435Z,16.33
2019-04-03T09:06:23.527Z,15.67
2019-04-03T09:08:52.543Z,16.93
2019-04-03T09:11:21.316Z,16.47
2019-04-03T09:13:49.928Z,15.07
2019-04-03T09:16:18.508Z,16.37
2019-04-03T09:18:47.090Z,16.33
2019-04-03T09:21:16.070Z,17.30
2019-04-03T09:23:44.790Z,17.87
2019-04-03T09:26:13.379Z,17.20
2019-04-03T09:28:42.425Z,16.60
2019-04-03T09:31:11.417Z,16.47
2019-04-03T09:33:39.995Z,16.20
2019-04-03T09:36:08.686Z,15.97
2019-04-03T09:38:37.555Z,15.80
2019-04-03T09:41:06.443Z,16.20
2019-04-03T09:43:35.043Z,16.53
2019-04-03T09:46:03.709Z,16.97
2019-04-03T09:48:32.318Z,16.20
2019-04-03T09:51:01.017Z,16.40
2019-04-03T09:53:29.895Z,14.83
2019-04-03T09:55:58.479Z,15.37
2019-04-03T09:58:27.390Z,16.20
2019-04-03T10:00:56.182Z,16.10
2019-04-03T10:03:24.852Z,17.20
2019-04-03T10:05:53.472Z,16.73
2019-04-03T10:08:22.068Z,16.07
2019-04-03T10:10:50.659Z,16.67
2019-04-03T10:13:19.401Z,16.30
2019-04-03T10:15:48.249Z,16.07
2019-04-03T10:18:17.294Z,16.47
2019-04-03T10:20:48.789Z,16.40
2019-04-03T10:23:16.275Z,15.43
2019-04-03T10:25:45.057Z,15.77
2019-04-03T10:28:15.058Z,15.70
2019-04-03T10:30:44.138Z,15.93
2019-04-03T10:33:12.751Z,17.87
2019-04-03T10:35:41.582Z,15.43
2019-04-03T10:38:10.315Z,16.67
2019-04-03T10:40:38.907Z,17.10
2019-04-03T10:43:07.599Z,15.73
2019-04-03T10:45:36.256Z,16.10
2019-04-03T10:48:04.966Z,15.30
2019-04-03T10:50:36.401Z,17.23
2019-04-03T10:53:04.366Z,18.07
2019-04-03T10:55:33.507Z,18.40
2019-04-03T10:58:02.627Z,16.67
2019-04-03T11:00:31.800Z,17.47
2019-04-03T11:03:00.422Z,16.73
2019-04-03T11:05:29.391Z,15.57
2019-04-03T11:07:58.166Z,17.60
2019-04-03T11:10:26.899Z,16.40
2019-04-03T11:12:55.743Z,16.70
2019-04-03T11:15:24.453Z,16.60
2019-04-03T11:17:53.107Z,17.33
2019-04-03T11:20:21.817Z,16.93
2019-04-03T11:22:50.687Z,17.23
2019-04-03T11:25:20.738Z,15.90
2019-04-03T11:27:49.637Z,17.37
2019-04-03T11:30:23.569Z,17.83
2019-04-03T11:32:49.370Z,18.63
2019-04-03T11:35:20.817Z,16.30
2019-04-03T11:37:48.583Z,19.47
2019-04-03T11:40:18.670Z,16.83
2019-04-03T11:42:47.875Z,16.60
2019-04-03T11:45:17.189Z,13.77
2019-04-03T11:47:46.409Z,16.40
2019-04-03T11:50:16.211Z,15.83
2019-04-03T11:52:44.790Z,15.10
2019-04-03T11:55:13.827Z,15.27
2019-04-03T11:57:42.420Z,15.33
2019-04-03T12:00:14.361Z,14.43
2019-04-03T12:02:44.504Z,13.93
2019-04-03T12:05:19.868Z,14.50
2019-04-03T12:07:45.995Z,14.10
2019-04-03T12:10:14.855Z,13.97
2019-04-03T12:12:43.766Z,14.60
2019-04-03T12:15:16.079Z,14.63
2019-04-03T12:17:43.709Z,13.97
2019-04-03T12:20:15.392Z,15.57
2019-04-03T12:22:43.341Z,15.27
2019-04-03T12:25:12.157Z,14.70
2019-04-03T12:27:40.755Z,15.37
2019-04-03T12:30:10.386Z,14.57
2019-04-03T12:32:43.610Z,15.27
2019-04-03T12:35:10.893Z,15.60
2019-04-03T12:37:39.772Z,15.13
2019-04-03T12:40:10.721Z,14.70
2019-04-03T12:42:39.387Z,15.13
2019-04-03T12:45:09.487Z,14.03
2019-04-03T12:47:38.306Z,14.67
2019-04-03T12:50:11.834Z,14.47
2019-04-03T12:52:39.732Z,16.00
2019-04-03T12:55:09.707Z,16.27
2019-04-03T12:57:39.773Z,14.40
2019-04-03T13:00:12.576Z,15.13
2019-04-03T13:02:41.573Z,14.70
2019-04-03T13:05:11.139Z,13.43
2019-04-03T13:07:39.839Z,14.53
2019-04-03T13:10:10.119Z,13.90
2019-04-03T13:12:39.186Z,14.27
2019-04-03T13:15:10.445Z,13.97
2019-04-03T13:17:39.366Z,13.53
2019-04-03T13:20:09.203Z,14.50
2019-04-03T13:22:37.873Z,14.90
2019-04-03T13:25:08.626Z,14.90
2019-04-03T13:27:37.686Z,16.20
2019-04-03T13:30:11.966Z,15.70
2019-04-03T13:32:40.974Z,15.20
2019-04-03T13:35:10.496Z,16.07
2019-04-03T13:37:39.088Z,16.63
2019-04-03T13:40:09.168Z,17.77
2019-04-03T13:42:37.897Z,17.07
2019-04-03T13:45:09.271Z,16.13
2019-04-03T13:47:41.101Z,19.13
2019-04-03T13:50:09.710Z,16.90
2019-04-03T13:52:42.361Z,15.57
2019-04-03T13:55:09.629Z,17.30
2019-04-03T13:57:38.626Z,17.63
2019-04-03T14:00:18.348Z,16.90
2019-04-03T14:02:39.062Z,17.90
2019-04-03T14:05:08.717Z,17.77
2019-04-03T14:07:40.389Z,18.40
2019-04-03T14:10:09.874Z,17.30
2019-04-03T14:12:43.328Z,18.33
2019-04-03T14:15:10.754Z,17.83
2019-04-03T14:17:39.831Z,18.40
2019-04-03T14:20:09.954Z,17.17
2019-04-03T14:22:38.590Z,17.90
2019-04-03T14:25:18.461Z,18.33
2019-04-03T14:27:38.630Z,17.10
2019-04-03T14:30:11.182Z,17.30
2019-04-03T14:32:38.808Z,19.60
2019-04-03T14:35:34.140Z,19.87
2019-04-03T14:37:38.674Z,18.17
2019-04-03T14:40:11.103Z,18.20
2019-04-03T14:42:38.808Z,17.67
2019-04-03T14:45:08.177Z,19.27
2019-04-03T14:47:36.865Z,17.57
2019-04-03T14:50:09.222Z,18.60
2019-04-03T14:52:37.817Z,16.93
2019-04-03T14:55:18.094Z,16.67
2019-04-03T14:57:38.241Z,17.27
2019-04-03T15:00:22.968Z,17.30
2019-04-03T15:02:40.667Z,18.63
2019-04-03T15:05:10.133Z,17.60
2019-04-03T15:07:38.747Z,18.67
2019-04-03T15:10:08.477Z,18.57
2019-04-03T15:12:39.724Z,16.13
2019-04-03T15:15:09.106Z,18.40
2019-04-03T15:17:38.723Z,18.03
2019-04-03T15:20:10.572Z,18.07
2019-04-03T15:22:39.568Z,17.83
2019-04-03T15:25:08.784Z,17.10
2019-04-03T15:27:38.184Z,18.00
2019-04-03T15:30:10.855Z,19.53
2019-04-03T15:32:40.137Z,18.37
2019-04-03T15:35:09.446Z,17.30
2019-04-03T15:37:40.850Z,17.13
2019-04-03T15:40:10.177Z,18.43
2019-04-03T15:42:40.714Z,17.47
2019-04-03T15:45:11.341Z,17.03
2019-04-03T15:47:45.127Z,15.80
2019-04-03T15:50:11.216Z,15.27
2019-04-03T15:52:39.807Z,14.70
2019-04-03T15:55:09.577Z,15.77
2019-04-03T15:57:39.975Z,14.30
2019-04-03T16:00:12.077Z,14.53
2019-04-03T16:02:44.448Z,15.77
2019-04-03T16:05:13.383Z,14.53
2019-04-03T16:07:42.685Z,14.93
2019-04-03T16:10:12.039Z,15.50
2019-04-03T16:12:42.967Z,15.27
2019-04-03T16:15:11.676Z,14.17
2019-04-03T16:17:40.372Z,16.47
2019-04-03T16:20:09.443Z,16.80
2019-04-03T16:22:38.219Z,13.70
2019-04-03T16:25:08.031Z,13.87
2019-04-03T16:27:37.439Z,14.67
2019-04-03T16:30:08.447Z,16.07
2019-04-03T16:32:37.608Z,15.97
2019-04-03T16:35:07.881Z,17.43
2019-04-03T16:37:37.229Z,17.60
2019-04-03T16:40:10.383Z,16.37
2019-04-03T16:42:39.441Z,15.50
2019-04-03T16:45:12.057Z,15.50
2019-04-03T16:47:40.766Z,14.20
2019-04-03T16:50:11.128Z,15.20
2019-04-03T16:52:40.057Z,15.20
2019-04-03T16:55:09.435Z,15.20
2019-04-03T16:57:38.240Z,15.33
2019-04-03T17:00:10.130Z,15.73
2019-04-03T17:02:39.097Z,14.67
2019-04-03T17:05:11.653Z,17.03
2019-04-03T17:07:39.355Z,15.30
2019-04-03T17:10:10.034Z,16.00
2019-04-03T17:12:39.011Z,15.93
2019-04-03T17:15:09.626Z,21.27
2019-04-03T17:17:39.019Z,16.93
2019-04-03T17:20:09.855Z,17.40
2019-04-03T17:22:40.797Z,15.67
2019-04-03T17:25:10.656Z,14.77
2019-04-03T17:27:39.437Z,15.50
2019-04-03T17:30:10.209Z,14.57
2019-04-03T17:32:39.884Z,15.23
2019-04-03T17:35:08.990Z,14.73
2019-04-03T17:37:37.646Z,15.30
2019-04-03T17:40:12.700Z,15.63
2019-04-03T17:42:41.299Z,16.47
2019-04-03T17:45:10.241Z,16.80
2019-04-03T17:47:38.835Z,14.97
2019-04-03T17:50:09.488Z,15.77
2019-04-03T17:52:38.058Z,15.10
2019-04-03T17:55:11.062Z,15.90
2019-04-03T17:57:39.952Z,14.93
2019-04-03T18:00:20.536Z,15.43
2019-04-03T18:02:48.019Z,14.83
2019-04-03T18:05:17.079Z,15.87
2019-04-03T18:07:45.701Z,15.73
2019-04-03T18:10:14.833Z,16.23
2019-04-03T18:12:45.592Z,16.30
2019-04-03T18:15:14.383Z,16.80
2019-04-03T18:17:42.975Z,15.57
2019-04-03T18:20:13.409Z,16.93
2019-04-03T18:22:42.176Z,15.40
2019-04-03T18:25:11.654Z,16.03
2019-04-03T18:27:40.245Z,15.37
2019-04-03T18:30:11.886Z,16.43
2019-04-03T18:32:40.290Z,15.50
2019-04-03T18:35:09.323Z,16.70
2019-04-03T18:37:40.674Z,16.03
2019-04-03T18:40:13.875Z,16.13
2019-04-03T18:42:40.809Z,16.70
2019-04-03T18:45:09.939Z,18.17
2019-04-03T18:47:41.492Z,16.60
2019-04-03T18:50:10.359Z,16.43
2019-04-03T18:52:39.440Z,17.00
2019-04-03T18:55:08.719Z,17.30
2019-04-03T18:57:37.340Z,17.87
2019-04-03T19:00:10.806Z,18.47
2019-04-03T19:02:39.543Z,18.60
2019-04-03T19:05:10.948Z,17.70
2019-04-03T19:07:39.203Z,16.00
2019-04-03T19:10:09.599Z,16.80
2019-04-03T19:12:38.217Z,18.67
2019-04-03T19:15:07.549Z,18.07
2019-04-03T19:17:36.272Z,18.40
2019-04-03T19:20:10.699Z,18.63
2019-04-03T19:22:37.297Z,16.73
2019-04-03T19:25:09.543Z,17.37
2019-04-03T19:27:38.292Z,19.50
2019-04-03T19:30:08.022Z,19.27
2019-04-03T19:32:36.893Z,17.93
2019-04-03T19:35:09.816Z,17.57
2019-04-03T19:37:38.739Z,16.93
2019-04-03T19:40:09.883Z,18.10
2019-04-03T19:42:38.225Z,18.00
2019-04-03T19:45:08.039Z,18.80
2019-04-03T19:47:36.745Z,18.80
2019-04-03T19:50:08.335Z,17.33
2019-04-03T19:52:37.317Z,18.40
2019-04-03T19:55:07.952Z,17.10
2019-04-03T19:57:36.631Z,18.30
2019-04-03T20:00:08.363Z,17.73
2019-04-03T20:02:38.295Z,18.30
2019-04-03T20:05:07.650Z,19.07
2019-04-03T20:07:36.428Z,18.23
2019-04-03T20:10:10.296Z,19.27
2019-04-03T20:12:38.889Z,18.77
2019-04-03T20:15:08.515Z,19.10
2019-04-03T20:17:38.927Z,18.97
2019-04-03T20:20:08.453Z,18.57
2019-04-03T20:22:37.830Z,19.70
2019-04-03T20:25:08.509Z,18.87
2019-04-03T20:27:37.155Z,17.60
2019-04-03T20:30:07.703Z,20.00
2019-04-03T20:32:39.737Z,18.87
2019-04-03T20:35:07.663Z,18.10
2019-04-03T20:37:36.245Z,18.83
2019-04-03T20:40:06.684Z,19.97
2019-04-03T20:42:35.722Z,20.60
2019-04-03T20:45:08.852Z,20.53
2019-04-03T20:47:37.471Z,19.70
2019-04-03T20:50:07.841Z,17.90
2019-04-03T20:52:36.629Z,20.53
2019-04-03T20:55:06.896Z,17.87
2019-04-03T20:57:35.524Z,18.50
2019-04-03T21:00:07.267Z,19.20
2019-04-03T21:02:35.889Z,17.40
2019-04-03T21:05:07.691Z,18.53
2019-04-03T21:07:36.189Z,21.40
2019-04-03T21:10:08.115Z,20.13
2019-04-03T21:12:36.801Z,18.60
2019-04-03T21:15:08.997Z,18.77
2019-04-03T21:17:38.095Z,18.50
2019-04-03T21:20:07.239Z,19.63
2019-04-03T21:22:35.900Z,19.30
2019-04-03T21:25:06.371Z,19.10
2019-04-03T21:27:35.085Z,18.77
2019-04-03T21:30:05.412Z,19.67
2019-04-03T21:32:34.043Z,19.07
2019-04-03T21:35:04.014Z,19.90
2019-04-03T21:37:32.915Z,17.87
2019-04-03T21:40:04.701Z,19.40
2019-04-03T21:42:31.848Z,17.30
2019-04-03T21:45:02.460Z,19.37
2019-04-03T21:47:30.812Z,18.10
2019-04-03T21:49:59.390Z,19.77
2019-04-03T21:52:27.982Z,18.07
2019-04-03T21:54:58.362Z,18.17
2019-04-03T21:57:26.935Z,17.80
2019-04-03T21:59:55.515Z,18.40
2019-04-03T22:02:24.153Z,18.27
2019-04-03T22:04:53.971Z,17.50
2019-04-03T22:07:23.211Z,16.60
2019-04-03T22:09:51.813Z,17.27
2019-04-03T22:12:20.397Z,18.17
2019-04-03T22:14:49.073Z,17.83
2019-04-03T22:17:17.879Z,17.50
2019-04-03T22:19:46.479Z,18.40
2019-04-03T22:22:15.064Z,18.60
2019-04-03T22:24:43.689Z,16.07
2019-04-03T22:27:12.365Z,17.33
2019-04-03T22:29:40.989Z,16.87
2019-04-03T22:32:09.858Z,16.57
2019-04-03T22:34:38.442Z,17.30
2019-04-03T22:37:08.754Z,17.53
2019-04-03T22:39:39.056Z,16.10
2019-04-03T22:42:07.708Z,17.23
2019-04-03T22:44:36.297Z,17.40
2019-04-03T22:47:05.086Z,17.27
2019-04-03T22:49:34.443Z,18.33
2019-04-03T22:52:03.094Z,17.40
2019-04-03T22:54:31.856Z,16.47
2019-04-03T22:57:00.444Z,16.43
2019-04-03T22:59:29.028Z,15.47
2019-04-03T23:02:00.764Z,17.57
2019-04-03T23:04:28.031Z,15.87
2019-04-03T23:06:56.619Z,15.30
2019-04-03T23:09:25.551Z,16.57
2019-04-03T23:11:54.180Z,15.93
2019-04-03T23:14:22.772Z,15.37
2019-04-03T23:16:51.371Z,16.50
2019-04-03T23:19:19.969Z,14.30
2019-04-03T23:21:48.552Z,18.83
2019-04-03T23:24:17.163Z,16.10
2019-04-03T23:26:46.078Z,16.30
2019-04-03T23:29:14.670Z,15.73
2019-04-03T23:31:44.897Z,16.13
2019-04-03T23:34:13.654Z,16.87
2019-04-03T23:36:42.268Z,15.80
2019-04-03T23:39:10.932Z,15.53
2019-04-03T23:41:39.526Z,15.90
2019-04-03T23:44:10.599Z,15.17
2019-04-03T23:46:38.848Z,16.07
2019-04-03T23:49:07.454Z,15.33
2019-04-03T23:51:36.058Z,15.40
2019-04-03T23:54:04.732Z,15.87
2019-04-03T23:56:33.330Z,16.07
2019-04-03T23:59:01.901Z,16.80
